Mount Auburn, IL (62547)

10:32 AM CDT die 31o October, anno 2014 (GMT -0500)
South Weather Station | Change Station
CLOSE
Current Station
Personal Weather Stations
Location: Mechanicsburg, IL
Elevation: 587 ft
Nearby Weather Stations
Active Advisory: Freeze Warning

Elev 587 ft 39.80 °N, 89.40 °W | Updated 8 seconds ago

Plerumque Nubila
Plerumque Nubila
38.7 °F
Feels Like 39 °F
N
0.0
Ventus Variabilis Ventus from Aquilo
Gusts 0.0 mph

Hodie
High -- | Low -- °F
--% Chance of Precip.
Yesterday
High -- | Low -- °F
Precip. -- in
7:24 AM 5:55 PM
First Quarter, 56% visible
Pressio 30.23 in
Visibilitas 10.0 milia passuum
Clouds Plerumque Nubila 3400 ft
Frigus Venti 39 °F
Frigus in quo Ros apparet 23 °F
Umor 54%
Rainfall 0.00 in
Snow Depth Not available.
UV 1 out of 12
Pollen .90 out of 12
Air Quality Not available.
Flu Activity Not available.
METAR KTAZ 311515Z AUTO 35025G31KT 10SM BKN034 02/M02 A3023 RMK AO2

More Conditions Fewer Conditions

Pressio 30.23 in
Visibilitas 10.0 milia passuum
Clouds Plerumque Nubila 3400 ft
Frigus Venti 39 °F
Frigus in quo Ros apparet 23 °F
Umor 54%
Rainfall 0.00 in
Snow Depth Not available.
UV 1 out of 12
Pollen .90 out of 12
Air Quality Not available.
Flu Activity Not available.
METAR KTAZ 311515Z AUTO 35025G31KT 10SM BKN034 02/M02 A3023 RMK AO2

More Conditions Fewer Conditions

10-Day Weather Forecast

Almanac

Astronomy

Oct. 31, 2014 Rise Set
Actual Time
Civil Twilight
Nautical Twilight
Astronomical Twilight
Moon
Length Of Visible Light
Length of Day
Tomorrow will be .
, % of the Moon is Illuminated

Today's Extremes

State Highs State Lows

Community

WunderPhotos

Upload Photos

1,766,640 photos uploaded!

WunderBlogs® & News

Nearby

Air Quality

  Air Quality AQ Index Pollutant
Not available.

Snow Depth

Station Depth Elevation

Earthquake Activity

City Distance Mag. Time & Date
Minimum magnitude displayed is 2.5.

Coastal Water Temperatures

Locus Calor

Nearby Weather Stations